createdAt,value
2019-02-17T00:00:24.834Z,-0.50
2019-02-17T00:03:28.721Z,-0.60
2019-02-17T00:06:32.563Z,-0.70
2019-02-17T00:09:36.439Z,-0.70
2019-02-17T00:12:40.285Z,-0.70
2019-02-17T00:15:44.189Z,-0.80
2019-02-17T00:18:48.190Z,-0.90
2019-02-17T00:21:52.029Z,-0.80
2019-02-17T00:24:55.949Z,-0.90
2019-02-17T00:27:59.873Z,-0.80
2019-02-17T00:31:03.816Z,-0.80
2019-02-17T00:34:07.631Z,-0.80
2019-02-17T00:37:11.499Z,-0.80
2019-02-17T00:40:15.384Z,-0.90
2019-02-17T00:43:19.229Z,-0.80
2019-02-17T00:46:23.116Z,-0.70
2019-02-17T00:49:27.876Z,-0.70
2019-02-17T00:52:32.996Z,-0.80
2019-02-17T00:55:36.841Z,-0.90
2019-02-17T00:58:40.709Z,-0.90
2019-02-17T01:01:44.619Z,-0.90
2019-02-17T01:04:48.467Z,-1.00
2019-02-17T01:07:52.358Z,-0.90
2019-02-17T01:10:56.240Z,-1.00
2019-02-17T01:14:00.143Z,-1.10
2019-02-17T01:17:03.997Z,-1.20
2019-02-17T01:20:09.800Z,-1.10
2019-02-17T01:23:13.671Z,-1.10
2019-02-17T01:26:17.502Z,-1.20
2019-02-17T01:29:21.393Z,-1.30
2019-02-17T01:32:25.226Z,-1.40
2019-02-17T01:35:29.305Z,-1.40
2019-02-17T01:38:33.156Z,-1.30
2019-02-17T01:41:37.440Z,-1.30
2019-02-17T01:44:41.267Z,-1.30
2019-02-17T01:47:45.166Z,-1.40
2019-02-17T01:50:49.109Z,-1.40
2019-02-17T01:53:52.943Z,-1.30
2019-02-17T01:56:56.836Z,-1.50
2019-02-17T02:00:00.716Z,-1.50
2019-02-17T02:03:05.971Z,-1.40
2019-02-17T02:06:09.800Z,-1.40
2019-02-17T02:09:13.694Z,-1.30
2019-02-17T02:12:17.537Z,-1.20
2019-02-17T02:15:21.423Z,-1.30
2019-02-17T02:18:25.293Z,-1.10
2019-02-17T02:21:29.151Z,-1.10
2019-02-17T02:24:33.083Z,-1.00
2019-02-17T02:27:36.975Z,-1.10
2019-02-17T02:30:41.234Z,-1.20
2019-02-17T02:33:45.116Z,-1.10
2019-02-17T02:36:48.972Z,-1.00
2019-02-17T02:39:52.854Z,-0.70
2019-02-17T02:42:56.689Z,-0.60
2019-02-17T02:46:00.555Z,-0.60
2019-02-17T02:49:04.411Z,-0.80
2019-02-17T02:52:08.271Z,-1.00
2019-02-17T02:55:12.175Z,-0.80
2019-02-17T02:58:16.017Z,-0.90
2019-02-17T03:01:19.953Z,-1.00
2019-02-17T03:04:23.783Z,-1.10
2019-02-17T03:07:27.671Z,-1.20
2019-02-17T03:10:31.544Z,-1.30
2019-02-17T03:13:35.420Z,-1.30
2019-02-17T03:16:39.304Z,-1.30
2019-02-17T03:19:43.150Z,-1.40
2019-02-17T03:22:47.076Z,-1.20
2019-02-17T03:25:50.920Z,-1.30
2019-02-17T03:28:54.791Z,-1.20
2019-02-17T03:31:58.717Z,-1.20
2019-02-17T03:35:02.571Z,-1.30
2019-02-17T03:38:06.459Z,-1.20
2019-02-17T03:41:10.288Z,-1.10
2019-02-17T03:44:14.165Z,-1.10
2019-02-17T03:47:18.006Z,-1.10
2019-02-17T03:50:21.900Z,-1.10
2019-02-17T03:53:25.748Z,-1.30
2019-02-17T03:56:29.641Z,-1.60
2019-02-17T03:59:33.523Z,-1.80
2019-02-17T04:02:37.358Z,-1.90
2019-02-17T04:05:41.256Z,-2.00
2019-02-17T04:08:45.105Z,-2.00
2019-02-17T04:11:48.997Z,-1.90
2019-02-17T04:14:52.865Z,-1.90
2019-02-17T04:17:56.713Z,-1.90
2019-02-17T04:21:00.596Z,-1.60
2019-02-17T04:24:04.463Z,-1.60
2019-02-17T04:27:08.330Z,-1.50
2019-02-17T04:30:12.291Z,-1.50
2019-02-17T04:33:16.144Z,-1.50
2019-02-17T04:36:20.058Z,-1.60
2019-02-17T04:39:23.893Z,-1.60
2019-02-17T04:42:27.771Z,-1.70
2019-02-17T04:45:31.597Z,-1.80
2019-02-17T04:48:35.470Z,-1.80
2019-02-17T04:51:39.318Z,-1.90
2019-02-17T04:54:43.255Z,-1.90
2019-02-17T04:57:47.151Z,-1.90
2019-02-17T05:00:51.003Z,-1.90
2019-02-17T05:03:54.893Z,-1.90
2019-02-17T05:06:58.737Z,-1.90
2019-02-17T05:10:02.599Z,-1.90
2019-02-17T05:13:06.461Z,-1.90
2019-02-17T05:16:10.357Z,-1.90
2019-02-17T05:19:14.211Z,-1.90
2019-02-17T05:22:18.088Z,-1.90
2019-02-17T05:25:21.977Z,-1.80
2019-02-17T05:28:25.834Z,-2.00
2019-02-17T05:31:29.720Z,-2.10
2019-02-17T05:34:33.663Z,-2.10
2019-02-17T05:37:37.540Z,-2.10
2019-02-17T05:40:41.418Z,-2.10
2019-02-17T05:43:45.275Z,-2.20
2019-02-17T05:46:49.160Z,-2.20
2019-02-17T05:49:53.018Z,-2.20
2019-02-17T05:52:56.908Z,-2.20
2019-02-17T05:56:00.994Z,-2.10
2019-02-17T05:59:04.872Z,-2.00
2019-02-17T06:02:08.770Z,-2.00
2019-02-17T06:05:12.619Z,-2.00
2019-02-17T06:08:16.543Z,-1.90
2019-02-17T06:11:20.375Z,-1.70
2019-02-17T06:14:24.274Z,-1.60
2019-02-17T06:17:28.103Z,-1.40
2019-02-17T06:20:31.995Z,-1.30
2019-02-17T06:23:35.828Z,-1.20
2019-02-17T06:26:39.751Z,-1.00
2019-02-17T06:29:43.750Z,-0.80
2019-02-17T06:32:47.635Z,-0.50
2019-02-17T06:35:51.534Z,0.70
2019-02-17T06:38:55.396Z,2.20
2019-02-17T06:41:59.311Z,3.40
2019-02-17T06:45:03.349Z,5.60
2019-02-17T06:48:07.234Z,7.60
2019-02-17T06:51:11.142Z,8.40
2019-02-17T06:54:14.951Z,9.90
2019-02-17T06:57:20.416Z,10.90
2019-02-17T07:00:25.818Z,12.50
2019-02-17T07:03:29.928Z,11.00
2019-02-17T07:06:37.878Z,11.20
2019-02-17T07:09:41.707Z,11.00
2019-02-17T07:12:45.597Z,11.50
2019-02-17T07:15:49.437Z,12.00
2019-02-17T07:18:53.329Z,13.90
2019-02-17T07:21:57.156Z,14.90
2019-02-17T07:25:01.076Z,15.40
2019-02-17T07:28:04.909Z,15.90
2019-02-17T07:31:08.991Z,14.10
2019-02-17T07:34:12.901Z,16.40
2019-02-17T07:37:19.210Z,16.00
2019-02-17T07:40:22.301Z,17.00
2019-02-17T07:43:26.146Z,18.90
2019-02-17T07:46:30.035Z,17.60
2019-02-17T07:49:33.864Z,17.90
2019-02-17T07:52:37.936Z,16.40
2019-02-17T07:55:41.972Z,13.80
2019-02-17T07:58:45.944Z,13.20
2019-02-17T08:01:49.813Z,12.50
2019-02-17T08:04:53.671Z,11.20
2019-02-17T08:07:57.716Z,9.80
2019-02-17T08:11:04.032Z,9.30
2019-02-17T08:14:07.184Z,8.70
2019-02-17T08:17:11.063Z,8.20
2019-02-17T08:20:14.939Z,8.50
2019-02-17T08:23:18.823Z,7.90
2019-02-17T08:26:22.698Z,7.90
2019-02-17T08:29:26.605Z,8.00
2019-02-17T08:32:32.142Z,8.00
2019-02-17T08:35:36.028Z,7.70
2019-02-17T08:38:39.879Z,7.60
2019-02-17T08:41:43.722Z,7.40
2019-02-17T08:44:47.608Z,7.60
2019-02-17T08:47:51.432Z,7.30
2019-02-17T08:50:55.330Z,7.50
2019-02-17T08:53:59.184Z,7.60
2019-02-17T08:57:03.034Z,7.60
2019-02-17T09:00:14.345Z,7.70
2019-02-17T09:03:18.219Z,7.70
2019-02-17T09:06:22.097Z,7.70
2019-02-17T09:09:25.953Z,7.80
2019-02-17T09:12:29.835Z,7.90
2019-02-17T09:15:33.703Z,7.90
2019-02-17T09:18:37.572Z,8.00
2019-02-17T09:21:41.457Z,8.20
2019-02-17T09:24:45.304Z,8.40
2019-02-17T09:27:49.208Z,8.90
2019-02-17T09:30:53.145Z,9.50
2019-02-17T09:33:57.077Z,9.80
2019-02-17T09:37:00.990Z,10.80
2019-02-17T09:40:06.611Z,11.10
2019-02-17T09:43:10.504Z,12.80
2019-02-17T09:46:14.359Z,13.20
2019-02-17T09:49:18.234Z,11.90
2019-02-17T09:52:22.090Z,11.20
2019-02-17T09:55:25.972Z,11.20
2019-02-17T09:58:29.841Z,11.20
2019-02-17T10:01:33.663Z,11.40
2019-02-17T10:04:37.552Z,12.10
2019-02-17T10:07:41.395Z,13.90
2019-02-17T10:10:45.272Z,15.60
2019-02-17T10:13:49.189Z,15.00
2019-02-17T10:16:53.044Z,15.80
2019-02-17T10:19:56.906Z,15.80
2019-02-17T10:23:00.775Z,16.60
2019-02-17T10:26:04.706Z,17.60
2019-02-17T10:29:08.570Z,19.20
2019-02-17T10:32:12.456Z,20.10
2019-02-17T10:35:16.358Z,20.10
2019-02-17T10:38:20.256Z,19.90
2019-02-17T10:41:24.107Z,20.10
2019-02-17T10:44:27.980Z,20.40
2019-02-17T10:47:31.806Z,21.00
2019-02-17T10:50:35.670Z,21.70
2019-02-17T10:53:39.604Z,21.20
2019-02-17T10:56:43.506Z,21.00
2019-02-17T10:59:47.437Z,22.10
2019-02-17T11:02:51.291Z,22.40
2019-02-17T11:05:55.170Z,22.00
2019-02-17T11:08:59.090Z,18.80
2019-02-17T11:12:02.972Z,17.00
2019-02-17T11:15:30.420Z,15.90
2019-02-17T11:18:34.332Z,15.40
2019-02-17T11:21:38.167Z,14.90
2019-02-17T11:24:42.004Z,14.80
2019-02-17T11:27:45.915Z,14.60
2019-02-17T11:30:49.749Z,14.20
2019-02-17T11:33:53.604Z,14.30
2019-02-17T11:36:57.441Z,14.30
2019-02-17T11:40:01.330Z,14.20
2019-02-17T11:43:05.191Z,14.30
2019-02-17T11:46:09.024Z,14.20
2019-02-17T11:49:12.890Z,14.10
2019-02-17T11:52:16.716Z,14.00
2019-02-17T11:55:22.680Z,14.10
2019-02-17T11:58:26.140Z,14.20
2019-02-17T12:01:29.960Z,14.00
2019-02-17T12:04:36.092Z,14.00
2019-02-17T12:07:39.919Z,13.90
2019-02-17T12:10:44.192Z,13.80
2019-02-17T12:13:48.037Z,13.80
2019-02-17T12:16:51.916Z,13.90
2019-02-17T12:19:57.274Z,13.90
2019-02-17T12:23:02.810Z,13.80
2019-02-17T12:26:10.972Z,13.70
2019-02-17T12:29:16.376Z,13.70
2019-02-17T12:32:21.829Z,13.70
2019-02-17T12:35:25.653Z,13.70
2019-02-17T12:38:29.573Z,13.70
2019-02-17T12:41:33.444Z,13.70
2019-02-17T12:44:37.294Z,13.70
2019-02-17T12:47:41.174Z,13.90
2019-02-17T12:50:45.006Z,13.80
2019-02-17T12:53:48.869Z,13.90
2019-02-17T12:56:52.834Z,13.80
2019-02-17T12:59:56.671Z,13.90
2019-02-17T13:03:00.623Z,13.80
2019-02-17T13:06:04.451Z,13.80
2019-02-17T13:09:08.361Z,14.00
2019-02-17T13:12:12.184Z,14.10
2019-02-17T13:15:16.480Z,14.00
2019-02-17T13:18:20.352Z,14.00
2019-02-17T13:21:24.190Z,14.00
2019-02-17T13:24:28.062Z,14.00
2019-02-17T13:27:31.884Z,13.90
2019-02-17T13:30:35.760Z,14.10
2019-02-17T13:33:39.724Z,14.20
2019-02-17T13:36:43.591Z,14.30
2019-02-17T13:39:47.501Z,14.10
2019-02-17T13:42:51.296Z,14.10
2019-02-17T13:45:55.406Z,14.20
2019-02-17T13:48:59.298Z,14.40
2019-02-17T13:52:03.150Z,14.40
2019-02-17T13:55:07.367Z,14.10
2019-02-17T13:58:11.217Z,13.90
2019-02-17T14:01:15.104Z,13.90
2019-02-17T14:04:19.094Z,13.80
2019-02-17T14:07:22.948Z,13.70
2019-02-17T14:10:26.792Z,13.50
2019-02-17T14:13:30.660Z,13.40
2019-02-17T14:16:34.496Z,13.50
2019-02-17T14:19:38.390Z,13.40
2019-02-17T14:22:42.310Z,13.30
2019-02-17T14:25:46.135Z,13.10
2019-02-17T14:28:49.991Z,13.10
2019-02-17T14:31:53.839Z,13.00
2019-02-17T14:34:57.714Z,12.80
2019-02-17T14:38:01.531Z,12.80
2019-02-17T14:41:05.421Z,12.70
2019-02-17T14:44:09.225Z,12.70
2019-02-17T14:47:13.090Z,12.60
2019-02-17T14:50:16.972Z,12.50
2019-02-17T14:53:20.817Z,12.40
2019-02-17T14:56:24.695Z,12.30
2019-02-17T14:59:28.520Z,12.20
2019-02-17T15:02:32.391Z,12.10
2019-02-17T15:05:36.231Z,11.90
2019-02-17T15:08:40.131Z,11.80
2019-02-17T15:11:43.980Z,11.90
2019-02-17T15:14:48.029Z,11.80
2019-02-17T15:17:51.909Z,11.70
2019-02-17T15:20:55.761Z,11.60
2019-02-17T15:23:59.618Z,11.20
2019-02-17T15:27:03.473Z,11.10
2019-02-17T15:30:10.255Z,11.00
2019-02-17T15:33:14.128Z,10.70
2019-02-17T15:36:17.997Z,10.50
2019-02-17T15:39:21.873Z,10.00
2019-02-17T15:42:25.691Z,9.50
2019-02-17T15:45:29.572Z,9.00
2019-02-17T15:48:33.409Z,8.50
2019-02-17T15:51:37.270Z,8.20
2019-02-17T15:54:41.127Z,7.90
2019-02-17T15:57:44.977Z,7.70
2019-02-17T16:00:48.798Z,7.50
2019-02-17T16:03:52.604Z,7.30
2019-02-17T16:06:56.495Z,7.00
2019-02-17T16:10:00.324Z,6.70
2019-02-17T16:13:04.208Z,6.40
2019-02-17T16:16:09.402Z,6.10
2019-02-17T16:19:13.601Z,5.80
2019-02-17T16:22:17.459Z,5.60
2019-02-17T16:25:21.285Z,5.40
2019-02-17T16:28:25.153Z,5.20
2019-02-17T16:31:28.974Z,5.10
2019-02-17T16:34:38.442Z,5.00
2019-02-17T16:37:38.355Z,4.90
2019-02-17T16:40:42.163Z,4.80
2019-02-17T16:43:46.049Z,4.70
2019-02-17T16:46:49.891Z,4.60
2019-02-17T16:49:53.771Z,4.40
2019-02-17T16:52:57.617Z,4.40
2019-02-17T16:56:01.452Z,4.30
2019-02-17T16:59:05.415Z,4.30
2019-02-17T17:02:09.435Z,4.30
2019-02-17T17:05:13.305Z,4.40
2019-02-17T17:08:17.180Z,4.50
2019-02-17T17:11:21.112Z,4.70
2019-02-17T17:14:24.975Z,4.70
2019-02-17T17:17:28.879Z,4.70
2019-02-17T17:20:33.032Z,4.60
2019-02-17T17:23:37.325Z,4.50
2019-02-17T17:26:41.251Z,4.50
2019-02-17T17:29:45.119Z,4.30
2019-02-17T17:32:48.970Z,4.30
2019-02-17T17:35:52.820Z,4.50
2019-02-17T17:38:56.656Z,4.40
2019-02-17T17:42:00.529Z,4.40
2019-02-17T17:45:09.930Z,4.40
2019-02-17T17:48:13.766Z,4.30
2019-02-17T17:51:18.384Z,4.50
2019-02-17T17:54:22.187Z,4.50
2019-02-17T17:57:28.544Z,4.40
2019-02-17T18:00:33.937Z,4.50
2019-02-17T18:03:38.610Z,4.60
2019-02-17T18:06:42.847Z,4.60
2019-02-17T18:09:46.962Z,4.60
2019-02-17T18:12:52.242Z,4.60
2019-02-17T18:15:56.050Z,4.50
2019-02-17T18:18:59.900Z,4.80
2019-02-17T18:22:04.542Z,4.60
2019-02-17T18:25:11.469Z,4.50
2019-02-17T18:28:15.587Z,4.30
2019-02-17T18:31:19.845Z,4.20
2019-02-17T18:49:24.439Z,3.60
2019-02-17T19:08:36.551Z,3.10
2019-02-17T19:11:40.391Z,2.90
2019-02-17T19:14:44.255Z,2.90
2019-02-17T19:17:48.260Z,2.90
2019-02-17T19:20:52.104Z,2.90
2019-02-17T19:23:55.983Z,2.90
2019-02-17T19:26:59.947Z,2.80
2019-02-17T19:30:03.931Z,2.70
2019-02-17T19:33:07.829Z,2.60
2019-02-17T19:36:11.662Z,2.60
2019-02-17T19:39:15.743Z,2.50
2019-02-17T19:42:20.096Z,2.50
2019-02-17T19:45:24.048Z,2.40
2019-02-17T19:48:27.983Z,2.30
2019-02-17T19:51:33.437Z,2.30
2019-02-17T19:54:37.354Z,2.20
2019-02-17T19:57:41.751Z,2.10
2019-02-17T20:00:45.603Z,2.10
2019-02-17T20:03:50.999Z,2.10
2019-02-17T20:06:54.873Z,2.00
2019-02-17T20:09:58.736Z,2.00
2019-02-17T20:13:02.549Z,2.00
2019-02-17T20:16:06.462Z,2.00
2019-02-17T20:19:10.238Z,2.00
2019-02-17T20:22:14.365Z,1.90
2019-02-17T20:25:18.257Z,1.90
2019-02-17T20:28:32.442Z,1.80
2019-02-17T20:31:27.791Z,1.80
2019-02-17T20:34:31.650Z,1.80
2019-02-17T20:37:35.516Z,1.90
2019-02-17T20:40:39.377Z,1.80
2019-02-17T20:43:43.212Z,1.90
2019-02-17T20:46:47.089Z,1.80
2019-02-17T20:49:50.883Z,1.80
2019-02-17T20:52:54.751Z,1.80
2019-02-17T20:55:59.934Z,1.80
2019-02-17T20:59:03.800Z,1.70
2019-02-17T21:02:09.149Z,1.60
2019-02-17T21:05:13.247Z,1.60
2019-02-17T21:08:17.265Z,1.60
2019-02-17T21:11:21.112Z,1.50
2019-02-17T21:14:25.020Z,1.50
2019-02-17T21:17:28.912Z,1.40
2019-02-17T21:20:32.991Z,1.30
2019-02-17T21:23:36.899Z,1.40
2019-02-17T21:26:40.763Z,1.40
2019-02-17T21:29:44.697Z,1.40
2019-02-17T21:32:48.502Z,1.40
2019-02-17T21:35:52.366Z,1.30
2019-02-17T21:38:58.677Z,1.30
2019-02-17T21:42:01.711Z,1.30
2019-02-17T21:45:13.344Z,1.20
2019-02-17T21:48:17.197Z,1.20
2019-02-17T21:51:21.109Z,1.10
2019-02-17T21:54:24.931Z,1.00
2019-02-17T21:57:28.796Z,1.10
2019-02-17T22:00:32.620Z,1.00
2019-02-17T22:03:36.515Z,1.00
2019-02-17T22:06:40.335Z,1.10
2019-02-17T22:09:44.229Z,1.00
2019-02-17T22:12:50.900Z,1.00
2019-02-17T22:15:53.653Z,0.90
2019-02-17T22:18:57.500Z,0.90
2019-02-17T22:22:01.392Z,0.80
2019-02-17T22:25:07.333Z,0.60
2019-02-17T22:28:11.225Z,0.60
2019-02-17T22:31:15.076Z,1.30
2019-02-17T22:34:18.933Z,1.60
2019-02-17T22:37:22.760Z,1.70
2019-02-17T22:40:26.617Z,1.80
2019-02-17T22:43:30.532Z,1.70
2019-02-17T22:46:34.376Z,1.70
2019-02-17T22:49:38.265Z,1.40
2019-02-17T22:52:42.083Z,1.00
2019-02-17T22:55:45.931Z,0.80
2019-02-17T22:58:49.776Z,0.30
2019-02-17T23:01:53.719Z,-0.10
2019-02-17T23:04:57.570Z,-0.30
2019-02-17T23:08:01.449Z,-0.40
2019-02-17T23:11:05.321Z,-0.50
2019-02-17T23:14:09.176Z,-0.70
2019-02-17T23:17:13.029Z,-0.70
2019-02-17T23:20:16.934Z,-0.80
2019-02-17T23:23:20.800Z,-0.70
2019-02-17T23:26:24.644Z,-0.70
2019-02-17T23:29:28.512Z,-0.70
2019-02-17T23:32:32.347Z,-0.60
2019-02-17T23:35:36.178Z,-0.50
2019-02-17T23:38:40.038Z,-0.50
2019-02-17T23:41:43.854Z,-0.50
2019-02-17T23:44:47.732Z,-0.60
2019-02-17T23:47:51.630Z,-0.70
2019-02-17T23:50:55.444Z,-0.80
2019-02-17T23:53:59.296Z,-0.80
2019-02-17T23:57:03.122Z,-0.80
